Radlett, United Kingdom
Current Conditions -  °F | °C
As of 3:50 AM on Monday 24 Nov 2014 (Local Time) from EGWU Reporting Station
Clear Clear  
Wind Chill: 32°   Ceiling: Unl
Heat Index: 32°   Visibility: 0.37mi
Dew Point: 32°   Wind: 1mph
Humidity: 100%   Direction: 190°S
Pressure: 30.24"   Gusts: NA
Location:  51.69°N, 0.32°W
Report Text: EGWU 240350Z AUTO 19001KT 0600 // NCD 00/M00 Q1024
Loading
Personal Weather Stations






























Interactive Weather Map New forecast layout! Learn more

10-Day Weather Forecast

Advertisements
Track Severe Weather on mobile